Time;durP1;ratioP1;P1;durP2;ratioP2;P2;SDS_P1;SDS_P2;PMS_P1;PMS_P2;Temp;Humidity;BMP_temperature;BMP_pressure;BME280_temperature;BME280_humidity;BME280_pressure;Samples;Min_cycle;Max_cycle;Signal;HPM_P1;HPM_P2
2023/01/18 00:01:57;;;;;;;4.78;1.42;;;-1.10;99.90;;;;;;5061366;28;20056;-74
2023/01/18 00:04:23;;;;;;;5.23;1.70;;;-1.10;99.90;;;;;;5051603;28;20056;-74
2023/01/18 00:06:48;;;;;;;6.43;2.30;;;-1.10;99.90;;;;;;5047705;28;20079;-74
2023/01/18 00:09:14;;;;;;;3.33;1.30;;;-1.10;99.90;;;;;;5062496;28;20056;-74
2023/01/18 00:11:40;;;;;;;1.87;0.80;;;-1.10;99.90;;;;;;5042935;28;20052;-74
2023/01/18 00:14:06;;;;;;;2.63;1.07;;;-1.10;99.90;;;;;;5029167;28;20041;-74
2023/01/18 00:16:31;;;;;;;3.53;0.97;;;-1.10;99.90;;;;;;5047421;28;20045;-74
2023/01/18 00:18:58;;;;;;;3.53;0.97;;;-1.10;99.90;;;;;;5021880;28;20127;-74
2023/01/18 00:21:26;;;;;;;3.13;0.98;;;-1.10;99.90;;;;;;5060761;28;20037;-74
2023/01/18 00:23:53;;;;;;;4.13;1.10;;;-1.00;99.90;;;;;;5063827;28;20032;-74
2023/01/18 00:26:19;;;;;;;3.35;1.02;;;-1.10;99.90;;;;;;5041680;28;20056;-74
2023/01/18 00:28:45;;;;;;;6.47;1.43;;;-1.10;99.90;;;;;;5061340;28;20413;-74
2023/01/18 00:31:13;;;;;;;4.95;1.73;;;-1.10;99.90;;;;;;5058632;28;20510;-74
2023/01/18 00:33:42;;;;;;;4.72;1.30;;;-1.10;99.90;;;;;;5043591;28;20051;-74
2023/01/18 00:36:09;;;;;;;3.22;1.00;;;-1.20;99.90;;;;;;5053816;28;20622;-74
2023/01/18 00:38:34;;;;;;;3.38;1.33;;;-1.20;99.90;;;;;;5063441;28;20123;-74
2023/01/18 00:41:00;;;;;;;3.23;1.00;;;-1.20;99.90;;;;;;5030121;28;20131;-74
2023/01/18 00:43:37;;;;;;;5.07;1.07;;;-1.20;99.90;;;;;;5055907;28;20360;-74
2023/01/18 00:46:15;;;;;;;2.65;1.20;;;-1.20;99.90;;;;;;5043555;28;20134;-74
2023/01/18 00:48:42;;;;;;;3.95;1.20;;;-1.30;99.90;;;;;;5060719;28;20037;-74
2023/01/18 00:51:11;;;;;;;4.00;1.50;;;-1.30;99.90;;;;;;5061533;28;20133;-74
2023/01/18 00:53:38;;;;;;;4.15;1.42;;;-1.30;99.90;;;;;;5027316;28;20381;-74
2023/01/18 00:56:05;;;;;;;4.55;1.33;;;-1.30;99.90;;;;;;5047347;28;20048;-74
2023/01/18 00:58:32;;;;;;;4.35;1.42;;;-1.40;99.90;;;;;;5047008;28;20032;-74
2023/01/18 01:00:57;;;;;;;4.00;1.20;;;-1.30;99.90;;;;;;5034046;28;20124;-74
2023/01/18 01:03:23;;;;;;;5.47;2.57;;;-1.40;99.90;;;;;;5065876;28;20131;-74
2023/01/18 01:08:33;;;;;;;4.90;1.40;;;-1.40;99.90;;;;;;5045217;28;20041;-74
2023/01/18 01:11:04;;;;;;;3.77;1.20;;;-1.50;99.90;;;;;;5028111;28;20057;-74
2023/01/18 01:27:12;;;;;;;4.40;1.30;;;-1.50;99.90;;;;;;5061848;28;20049;-74
2023/01/18 01:29:38;;;;;;;5.00;1.35;;;-1.50;99.90;;;;;;5040971;28;20167;-74
2023/01/18 01:32:04;;;;;;;8.47;1.00;;;-1.50;99.90;;;;;;5065753;28;20128;-74
2023/01/18 01:34:30;;;;;;;4.00;1.00;;;-1.50;99.90;;;;;;5028474;28;20041;-74
2023/01/18 01:36:57;;;;;;;2.53;0.93;;;-1.50;99.90;;;;;;5048864;28;20480;-74
2023/01/18 01:39:23;;;;;;;3.90;1.05;;;-1.50;99.90;;;;;;5069243;28;20040;-74
2023/01/18 01:41:49;;;;;;;5.13;1.52;;;-1.50;99.90;;;;;;5052302;28;20040;-74
2023/01/18 01:44:20;;;;;;;4.27;0.93;;;-1.50;99.90;;;;;;5028938;28;20397;-74
2023/01/18 01:46:52;;;;;;;4.35;1.20;;;-1.40;99.90;;;;;;5053938;28;20037;-74
2023/01/18 01:49:27;;;;;;;5.65;1.60;;;-1.40;99.90;;;;;;5064356;28;20132;-74
2023/01/18 01:51:58;;;;;;;2.60;0.70;;;-1.40;99.90;;;;;;5057055;28;20037;-74
2023/01/18 01:54:30;;;;;;;3.35;1.10;;;-1.50;99.90;;;;;;5039860;28;20052;-74
2023/01/18 01:57:04;;;;;;;3.40;1.02;;;-1.50;99.90;;;;;;5039375;28;20379;-74
2023/01/18 01:59:37;;;;;;;6.22;1.17;;;-1.50;99.90;;;;;;5055387;28;20041;-74
2023/01/18 02:02:04;;;;;;;5.05;1.10;;;-1.40;99.90;;;;;;5058065;28;20102;-74
2023/01/18 02:04:30;;;;;;;6.25;1.20;;;-1.30;99.90;;;;;;5057491;28;20708;-74
2023/01/18 02:06:55;;;;;;;3.70;1.73;;;-1.10;99.90;;;;;;5062942;28;20143;-74
2023/01/18 02:09:22;;;;;;;5.83;1.17;;;-1.00;99.90;;;;;;5027361;28;20058;-74
2023/01/18 02:11:52;;;;;;;4.78;1.67;;;-1.00;99.90;;;;;;5053266;28;20080;-74
2023/01/18 02:14:20;;;;;;;5.13;1.10;;;-0.90;99.90;;;;;;5054528;28;20071;-74
2023/01/18 02:16:56;;;;;;;3.38;1.17;;;-0.90;99.90;;;;;;5052533;28;20043;-74
2023/01/18 02:19:28;;;;;;;4.80;1.25;;;-0.90;99.90;;;;;;5065147;28;20124;-74
2023/01/18 02:22:01;;;;;;;5.88;1.73;;;-1.00;99.90;;;;;;5041535;28;20083;-74
2023/01/18 02:24:32;;;;;;;3.65;1.20;;;-1.10;99.90;;;;;;5057459;28;20598;-74
2023/01/18 02:27:20;;;;;;;5.30;1.35;;;-1.10;99.90;;;;;;5059077;28;20041;-74
2023/01/18 02:30:09;;;;;;;5.07;1.38;;;-1.10;99.90;;;;;;5058267;28;20546;-74
2023/01/18 02:32:45;;;;;;;9.77;2.42;;;-1.20;99.90;;;;;;5036581;28;20430;-74
2023/01/18 02:35:13;;;;;;;;;;;-1.20;99.90;;;;;;5053437;28;20041;-74
2023/01/18 02:37:51;;;;;;;4.63;1.50;;;-1.20;99.90;;;;;;5067649;28;19917;-74
2023/01/18 02:40:45;;;;;;;3.33;1.52;;;-1.20;99.90;;;;;;5063246;28;20040;-74
2023/01/18 02:48:45;;;;;;;6.05;1.80;;;-1.30;99.90;;;;;;5067312;28;20052;-74
2023/01/18 02:51:11;;;;;;;4.65;1.85;;;-1.30;99.90;;;;;;5044763;28;20425;-74
2023/01/18 02:53:42;;;;;;;5.97;1.53;;;-1.30;99.90;;;;;;5066845;28;20043;-74
2023/01/18 02:56:26;;;;;;;6.25;2.08;;;-1.30;99.90;;;;;;5075269;28;20279;-74
2023/01/18 02:59:10;;;;;;;4.38;1.70;;;-1.30;99.90;;;;;;5056438;28;20051;-74
2023/01/18 03:02:06;;;;;;;7.85;2.30;;;-1.30;99.90;;;;;;5041951;28;20481;-74
2023/01/18 03:04:35;;;;;;;5.35;1.70;;;-1.30;99.90;;;;;;5064331;28;20505;-74
2023/01/18 03:07:06;;;;;;;3.92;1.88;;;-1.30;99.90;;;;;;5060649;28;20044;-72
2023/01/18 03:09:32;;;;;;;7.40;2.10;;;-1.30;99.90;;;;;;5047996;28;20052;-72
2023/01/18 03:12:17;;;;;;;9.00;2.40;;;-1.30;99.90;;;;;;5051416;28;20037;-72
2023/01/18 03:15:01;;;;;;;5.85;1.90;;;-1.30;99.90;;;;;;5050876;28;20051;-72
2023/01/18 03:17:40;;;;;;;3.88;1.95;;;-1.30;99.90;;;;;;5056065;28;20131;-72
2023/01/18 03:20:11;;;;;;;9.00;1.90;;;-1.40;99.90;;;;;;5048409;28;20047;-72
2023/01/18 03:25:53;;;;;;;5.30;2.08;;;-1.30;99.90;;;;;;5067102;28;20040;-72
2023/01/18 03:34:34;;;;;;;13.38;2.60;;;-1.30;99.90;;;;;;5060766;28;20041;-72
2023/01/18 03:37:06;;;;;;;7.10;2.50;;;-1.30;99.90;;;;;;5063936;28;20054;-72
2023/01/18 03:39:39;;;;;;;10.82;2.95;;;-1.30;99.90;;;;;;5063176;28;20177;-72
2023/01/18 03:42:13;;;;;;;9.05;3.35;;;-1.30;99.90;;;;;;5052652;28;20113;-72
2023/01/18 03:44:46;;;;;;;8.05;3.17;;;-1.40;99.90;;;;;;5058024;28;20039;-72
2023/01/18 03:47:12;;;;;;;8.60;2.95;;;-1.40;99.90;;;;;;5047804;28;20094;-72
2023/01/18 03:49:38;;;;;;;8.07;3.33;;;-1.40;99.90;;;;;;5056735;28;20512;-72
2023/01/18 03:52:18;;;;;;;9.73;3.73;;;-1.40;99.90;;;;;;5050386;28;20048;-72
2023/01/18 03:54:51;;;;;;;11.45;4.07;;;-1.30;99.90;;;;;;5044043;28;20048;-72
2023/01/18 03:57:53;;;;;;;8.13;4.03;;;-1.30;99.90;;;;;;5056116;28;20045;-72
2023/01/18 04:00:19;;;;;;;10.07;4.32;;;-1.20;99.90;;;;;;5055957;28;20071;-72
2023/01/18 04:02:47;;;;;;;8.53;4.07;;;-1.20;99.90;;;;;;5055631;28;20428;-72
2023/01/18 04:05:14;;;;;;;7.03;4.43;;;-1.10;99.90;;;;;;5059144;28;20406;-72
2023/01/18 04:07:40;;;;;;;8.00;4.72;;;-1.10;99.90;;;;;;5061697;28;20057;-72
2023/01/18 04:10:06;;;;;;;11.57;4.43;;;-1.00;99.90;;;;;;5046767;28;20467;-72
2023/01/18 04:12:33;;;;;;;11.40;4.78;;;-1.00;99.90;;;;;;5037773;28;20036;-72
2023/01/18 04:14:58;;;;;;;12.40;4.95;;;-1.00;99.90;;;;;;5067392;28;20080;-72
2023/01/18 04:17:24;;;;;;;9.33;4.70;;;-1.00;99.90;;;;;;5058919;28;20041;-72
2023/01/18 04:19:50;;;;;;;10.50;5.20;;;-1.00;99.90;;;;;;5055483;28;20079;-72
2023/01/18 04:22:15;;;;;;;11.00;4.53;;;-1.10;99.90;;;;;;5063225;28;20071;-72
2023/01/18 04:24:41;;;;;;;14.30;5.30;;;-1.10;99.90;;;;;;5050584;28;20044;-72
2023/01/18 04:27:07;;;;;;;11.60;5.20;;;-1.10;99.90;;;;;;5048897;28;20066;-72
2023/01/18 04:29:33;;;;;;;11.20;4.80;;;-1.10;99.90;;;;;;5042375;28;20746;-72
2023/01/18 04:31:58;;;;;;;10.40;4.87;;;-1.10;99.90;;;;;;5051117;28;20045;-72
2023/01/18 04:34:24;;;;;;;14.37;5.27;;;-1.20;99.90;;;;;;5058155;28;20523;-72
2023/01/18 04:36:50;;;;;;;9.43;5.70;;;-1.10;99.90;;;;;;5029152;28;20079;-72
2023/01/18 04:39:16;;;;;;;9.60;5.10;;;-1.20;99.90;;;;;;5063775;28;20052;-72
2023/01/18 04:41:43;;;;;;;9.48;4.65;;;-1.20;99.90;;;;;;5038819;28;20133;-72
2023/01/18 04:44:09;;;;;;;13.00;4.63;;;-1.20;99.90;;;;;;5055045;28;20531;-72
2023/01/18 04:46:37;;;;;;;10.00;5.00;;;-1.30;99.90;;;;;;5032241;28;20134;-72
2023/01/18 04:49:03;;;;;;;10.80;5.25;;;-1.30;99.90;;;;;;5041445;28;20051;-72
2023/01/18 04:51:30;;;;;;;11.93;4.93;;;-1.40;99.90;;;;;;5054589;28;20101;-72
2023/01/18 04:53:57;;;;;;;8.02;4.25;;;-1.40;99.90;;;;;;5077488;28;20459;-72
2023/01/18 04:56:23;;;;;;;12.43;4.40;;;-1.40;99.90;;;;;;5041013;28;20202;-72
2023/01/18 04:58:52;;;;;;;9.93;4.10;;;-1.40;99.90;;;;;;5032609;28;20151;-72
2023/01/18 05:01:19;;;;;;;7.20;4.40;;;-1.40;99.90;;;;;;5058075;28;20044;-72
2023/01/18 05:03:45;;;;;;;9.63;3.80;;;-1.40;99.90;;;;;;5060117;28;20473;-72
2023/01/18 05:06:13;;;;;;;8.83;4.33;;;-1.40;99.90;;;;;;5061305;28;20137;-72
2023/01/18 05:08:40;;;;;;;10.63;4.22;;;-1.40;99.90;;;;;;5053482;28;20044;-72
2023/01/18 05:11:11;;;;;;;9.80;3.75;;;-1.40;99.90;;;;;;5046404;28;20045;-72
2023/01/18 05:13:38;;;;;;;8.77;4.07;;;-1.40;99.90;;;;;;5053678;28;20037;-72
2023/01/18 05:16:05;;;;;;;6.82;3.60;;;-1.30;99.90;;;;;;5066412;28;20037;-72
2023/01/18 05:18:31;;;;;;;8.65;3.63;;;-1.30;99.90;;;;;;5060548;28;20123;-72
2023/01/18 05:20:57;;;;;;;8.90;3.10;;;-1.30;99.90;;;;;;5058563;28;20182;-72
2023/01/18 05:23:23;;;;;;;9.10;3.23;;;-1.20;99.90;;;;;;5041595;28;20051;-72
2023/01/18 05:25:56;;;;;;;8.40;3.17;;;-1.20;99.90;;;;;;5030893;28;20060;-72
2023/01/18 05:28:24;;;;;;;10.65;3.30;;;-1.20;99.90;;;;;;5065856;28;20450;-73
2023/01/18 05:30:50;;;;;;;7.95;3.17;;;-1.20;99.90;;;;;;5064708;28;20588;-72
2023/01/18 05:33:20;;;;;;;7.57;3.15;;;-1.20;99.90;;;;;;5050879;28;20044;-72
2023/01/18 05:35:54;;;;;;;8.90;3.35;;;-1.10;99.90;;;;;;5057859;28;20430;-72
2023/01/18 05:38:21;;;;;;;10.32;3.60;;;-1.10;99.90;;;;;;5047800;28;20037;-72
2023/01/18 05:40:51;;;;;;;9.95;3.63;;;-1.20;99.90;;;;;;5038694;28;20136;-72
2023/01/18 05:43:17;;;;;;;7.20;3.10;;;-1.20;99.90;;;;;;5061110;28;20051;-72
2023/01/18 05:45:43;;;;;;;8.45;3.05;;;-1.20;99.90;;;;;;5058618;28;20168;-72
2023/01/18 05:48:10;;;;;;;8.25;3.78;;;-1.20;99.90;;;;;;5060155;28;20112;-72
2023/01/18 05:50:40;;;;;;;5.50;2.72;;;-1.20;99.90;;;;;;5052319;28;20029;-72
2023/01/18 05:53:06;;;;;;;8.43;3.10;;;-1.20;99.90;;;;;;5060072;28;20374;-73
2023/01/18 05:55:32;;;;;;;10.70;3.53;;;-1.30;99.90;;;;;;5060136;28;20043;-73
2023/01/18 05:57:57;;;;;;;9.67;3.60;;;-1.20;99.90;;;;;;5044266;28;20330;-72
2023/01/18 06:00:23;;;;;;;7.60;2.87;;;-1.30;99.90;;;;;;5058579;28;20382;-72
2023/01/18 06:02:49;;;;;;;8.07;2.87;;;-1.20;99.90;;;;;;5042431;28;20509;-72
2023/01/18 06:05:15;;;;;;;5.10;3.23;;;-1.20;99.90;;;;;;5059838;28;20380;-72
2023/01/18 06:07:41;;;;;;;9.53;2.90;;;-1.20;99.90;;;;;;5059036;28;20116;-72
2023/01/18 06:10:07;;;;;;;6.57;2.57;;;-1.20;99.90;;;;;;5046561;28;20044;-72
2023/01/18 06:12:33;;;;;;;8.63;2.72;;;-1.10;99.90;;;;;;5039096;28;20048;-72
2023/01/18 06:14:59;;;;;;;6.53;2.93;;;-1.10;99.90;;;;;;5062516;28;20546;-72
2023/01/18 06:17:26;;;;;;;10.30;2.63;;;-1.10;99.90;;;;;;5057598;28;20051;-72
2023/01/18 06:19:51;;;;;;;6.93;2.83;;;-1.00;99.90;;;;;;5040584;28;20048;-72
2023/01/18 06:22:17;;;;;;;8.93;2.77;;;-1.00;99.90;;;;;;5047615;28;20408;-72
2023/01/18 06:24:43;;;;;;;6.33;2.57;;;-1.00;99.90;;;;;;5056172;28;20375;-72
2023/01/18 06:27:08;;;;;;;8.03;2.53;;;-1.00;99.90;;;;;;5047576;28;20067;-72
2023/01/18 06:29:34;;;;;;;5.37;2.33;;;-1.00;99.90;;;;;;5072295;28;20067;-72
2023/01/18 06:32:00;;;;;;;10.55;2.70;;;-1.00;99.90;;;;;;5029638;28;20048;-72
2023/01/18 06:34:26;;;;;;;5.43;2.20;;;-1.00;99.90;;;;;;5058034;28;20037;-72
2023/01/18 06:36:52;;;;;;;5.00;2.30;;;-1.00;99.90;;;;;;5034140;28;20040;-72
2023/01/18 06:39:17;;;;;;;11.40;2.80;;;-1.00;99.90;;;;;;5044559;28;20162;-72
2023/01/18 06:41:43;;;;;;;5.43;2.43;;;-0.90;99.90;;;;;;5051872;28;20606;-72
2023/01/18 06:44:09;;;;;;;9.13;3.97;;;-0.90;99.90;;;;;;5056479;28;20496;-72
2023/01/18 06:46:35;;;;;;;7.83;2.03;;;-0.90;99.90;;;;;;5048186;28;20113;-72
2023/01/18 06:49:00;;;;;;;8.90;2.80;;;-1.00;99.90;;;;;;5055597;28;20437;-72
2023/01/18 06:51:26;;;;;;;9.63;2.60;;;-1.00;99.90;;;;;;5039471;28;20037;-73
2023/01/18 06:53:52;;;;;;;5.33;2.40;;;-1.00;99.90;;;;;;5053764;28;20044;-72
2023/01/18 06:56:17;;;;;;;8.40;2.60;;;-1.00;99.90;;;;;;5031153;28;20044;-72
2023/01/18 06:58:43;;;;;;;5.97;2.23;;;-1.00;99.90;;;;;;5058585;28;20445;-72
2023/01/18 07:01:10;;;;;;;7.93;2.70;;;-1.00;99.90;;;;;;5047523;28;20076;-72
2023/01/18 07:03:35;;;;;;;6.38;2.63;;;-1.10;99.90;;;;;;5061092;28;20504;-72
2023/01/18 07:06:03;;;;;;;6.33;2.40;;;-1.10;99.90;;;;;;5059549;28;20044;-72
2023/01/18 07:08:30;;;;;;;10.57;2.95;;;-1.10;99.90;;;;;;5035928;28;20615;-72
2023/01/18 07:10:56;;;;;;;5.88;2.13;;;-1.10;99.90;;;;;;5052705;28;20069;-72
2023/01/18 07:13:23;;;;;;;9.15;2.50;;;-1.10;99.90;;;;;;5034491;28;20253;-72
2023/01/18 07:15:57;;;;;;;9.75;3.47;;;-1.00;99.90;;;;;;5047059;28;20045;-72
2023/01/18 07:18:23;;;;;;;4.95;1.83;;;-1.00;99.90;;;;;;5043390;28;20124;-72
2023/01/18 07:20:57;;;;;;;8.32;3.10;;;-0.90;99.90;;;;;;5063081;28;20539;-72
2023/01/18 07:23:23;;;;;;;8.30;2.10;;;-0.90;99.90;;;;;;5044582;28;20037;-72
2023/01/18 07:25:48;;;;;;;6.93;2.43;;;-0.90;99.90;;;;;;5056655;28;20044;-72
2023/01/18 07:28:14;;;;;;;4.50;1.93;;;-0.80;99.90;;;;;;5044561;28;20036;-72
2023/01/18 07:30:40;;;;;;;7.10;3.00;;;-0.70;99.90;;;;;;5024734;28;20079;-72
2023/01/18 07:33:06;;;;;;;11.87;3.80;;;-0.80;99.90;;;;;;5048760;28;20029;-72
2023/01/18 07:35:32;;;;;;;7.25;3.13;;;-0.80;99.90;;;;;;5039724;28;20040;-72
2023/01/18 07:37:58;;;;;;;9.40;3.43;;;-0.90;99.90;;;;;;5048864;28;20054;-72
2023/01/18 07:40:23;;;;;;;9.73;3.80;;;-1.00;99.90;;;;;;5067261;28;20237;-72
2023/01/18 07:42:55;;;;;;;12.67;5.67;;;-1.00;99.90;;;;;;5048686;28;20056;-72
2023/01/18 07:45:21;;;;;;;9.00;5.03;;;-1.10;99.90;;;;;;5060063;28;20045;-72
2023/01/18 07:47:47;;;;;;;10.20;5.73;;;-1.10;99.90;;;;;;4954981;28;20536;-72
2023/01/18 07:50:15;;;;;;;12.37;6.53;;;-1.20;99.90;;;;;;5045961;28;20048;-72
2023/01/18 07:52:41;;;;;;;16.20;6.35;;;-1.20;99.90;;;;;;5048491;28;20166;-73
2023/01/18 07:55:07;;;;;;;13.83;6.77;;;-1.30;99.90;;;;;;5065833;28;20564;-72
2023/01/18 07:57:33;;;;;;;12.88;6.43;;;-1.30;99.90;;;;;;5023728;28;20194;-73
2023/01/18 07:59:59;;;;;;;12.37;6.40;;;-1.40;99.90;;;;;;5050757;28;20151;-74
2023/01/18 08:02:24;;;;;;;10.30;6.03;;;-1.40;99.90;;;;;;5059054;28;20499;-72
2023/01/18 08:04:50;;;;;;;12.43;5.80;;;-1.40;99.90;;;;;;5047828;28;20053;-73
2023/01/18 08:07:17;;;;;;;11.20;6.10;;;-1.30;99.90;;;;;;5049546;28;20090;-72
2023/01/18 08:09:43;;;;;;;11.80;5.75;;;-1.30;99.90;;;;;;5063080;28;20097;-73
2023/01/18 08:12:12;;;;;;;10.57;6.60;;;-1.30;99.90;;;;;;5071598;28;20115;-74
2023/01/18 08:14:39;;;;;;;9.90;5.80;;;-1.30;99.90;;;;;;5061642;28;20040;-73
2023/01/18 08:17:05;;;;;;;13.93;6.22;;;-1.30;99.90;;;;;;5068448;28;20036;-73
2023/01/18 08:19:31;;;;;;;13.82;6.47;;;-1.20;99.90;;;;;;5068722;28;20036;-73
2023/01/18 08:21:57;;;;;;;15.02;6.25;;;-1.20;99.90;;;;;;5075819;28;20067;-73
2023/01/18 08:24:23;;;;;;;14.33;6.23;;;-1.20;99.90;;;;;;5047923;28;20041;-73
2023/01/18 08:26:48;;;;;;;12.57;6.20;;;-1.20;99.90;;;;;;5067797;28;20048;-73
2023/01/18 08:29:14;;;;;;;12.13;6.07;;;-1.20;99.90;;;;;;5070014;28;20118;-73
2023/01/18 08:31:40;;;;;;;12.37;6.20;;;-1.20;99.90;;;;;;5003132;28;20037;-73
2023/01/18 08:34:05;;;;;;;12.07;6.47;;;-1.10;99.90;;;;;;5049380;28;20074;-73
2023/01/18 08:36:32;;;;;;;11.60;6.70;;;-1.00;99.90;;;;;;5052494;28;20066;-73
2023/01/18 08:38:58;;;;;;;12.30;5.82;;;-0.80;99.90;;;;;;5061283;28;20037;-73
2023/01/18 08:41:27;;;;;;;12.87;6.17;;;-0.60;99.90;;;;;;5067784;28;20044;-72
2023/01/18 08:43:57;;;;;;;16.05;6.93;;;-0.50;99.90;;;;;;5061873;28;20076;-73
2023/01/18 08:46:24;;;;;;;12.75;5.90;;;-0.50;99.90;;;;;;5067592;28;20048;-73
2023/01/18 08:48:51;;;;;;;12.40;6.13;;;-0.40;99.90;;;;;;5062461;28;20129;-72
2023/01/18 08:51:17;;;;;;;11.13;5.53;;;-0.40;99.90;;;;;;5047113;28;20043;-73
2023/01/18 08:53:45;;;;;;;11.30;5.68;;;-0.40;99.90;;;;;;5066499;28;20040;-74
2023/01/18 08:56:11;;;;;;;17.88;5.90;;;-0.50;99.90;;;;;;5031108;28;20115;-73
2023/01/18 08:58:37;;;;;;;12.40;6.07;;;-0.50;99.90;;;;;;5064527;28;20038;-72
2023/01/18 09:01:04;;;;;;;12.00;5.37;;;-0.50;99.90;;;;;;5068602;28;20257;-73
2023/01/18 09:03:30;;;;;;;13.23;5.78;;;-0.50;99.90;;;;;;5067302;28;20055;-73
2023/01/18 09:05:59;;;;;;;12.77;5.20;;;-0.50;99.90;;;;;;5056663;28;20048;-73
2023/01/18 09:08:25;;;;;;;12.55;5.93;;;-0.50;99.90;;;;;;5058025;28;20074;-73
2023/01/18 09:10:51;;;;;;;10.23;5.70;;;-0.50;99.90;;;;;;5061806;28;20055;-73
2023/01/18 09:13:17;;;;;;;8.47;5.47;;;-0.40;99.90;;;;;;5046980;28;20121;-73
2023/01/18 09:15:45;;;;;;;8.63;4.90;;;-0.40;99.90;;;;;;5040773;28;20048;-73
2023/01/18 09:18:12;;;;;;;10.93;5.13;;;-0.30;99.90;;;;;;5047681;28;20039;-73
2023/01/18 09:20:37;;;;;;;9.95;5.38;;;-0.20;99.90;;;;;;5064182;28;20041;-73
2023/01/18 09:23:08;;;;;;;10.97;5.67;;;-0.20;99.90;;;;;;5049601;28;20522;-73
2023/01/18 09:25:35;;;;;;;9.52;4.85;;;-0.10;99.90;;;;;;5067176;28;20036;-73
2023/01/18 09:28:03;;;;;;;9.95;5.07;;;0.00;99.90;;;;;;5064110;28;20064;-73
2023/01/18 09:30:29;;;;;;;11.88;6.03;;;0.00;99.90;;;;;;5051511;28;20508;-74
2023/01/18 09:32:56;;;;;;;13.32;5.32;;;0.10;99.90;;;;;;5037906;28;20037;-73
2023/01/18 09:35:22;;;;;;;10.98;5.53;;;0.20;99.90;;;;;;5057262;28;20147;-73
2023/01/18 09:37:48;;;;;;;10.80;5.20;;;0.30;99.90;;;;;;5067014;28;20801;-73
2023/01/18 09:40:19;;;;;;;10.90;5.47;;;0.30;99.90;;;;;;5059229;28;20869;-73
2023/01/18 09:42:47;;;;;;;8.48;5.22;;;0.40;99.90;;;;;;5066609;28;20420;-72
2023/01/18 09:45:32;;;;;;;11.43;6.13;;;0.50;99.90;;;;;;5063315;28;20048;-73
2023/01/18 09:48:03;;;;;;;10.27;4.97;;;0.60;99.90;;;;;;5054345;28;20036;-72
2023/01/18 09:50:37;;;;;;;7.05;4.72;;;0.60;99.90;;;;;;5055980;28;20059;-73
2023/01/18 09:53:27;;;;;;;11.20;5.00;;;0.70;99.90;;;;;;5059583;28;20049;-73
2023/01/18 09:56:06;;;;;;;13.25;4.85;;;0.90;99.90;;;;;;5036709;28;20041;-73
2023/01/18 09:58:37;;;;;;;7.72;4.72;;;1.00;99.90;;;;;;5044774;28;20404;-73
2023/01/18 10:01:33;;;;;;;12.20;5.35;;;1.10;99.90;;;;;;5054450;28;20045;-73
2023/01/18 10:04:05;;;;;;;9.23;4.40;;;1.20;99.90;;;;;;5060326;28;20149;-73
2023/01/18 10:06:41;;;;;;;7.15;4.50;;;1.30;99.90;;;;;;5042173;28;20439;-74
2023/01/18 10:09:14;;;;;;;8.63;4.53;;;1.40;99.90;;;;;;5059321;28;20049;-72
2023/01/18 10:11:49;;;;;;;8.68;4.47;;;1.50;99.90;;;;;;5062008;28;20043;-73
2023/01/18 10:14:34;;;;;;;7.03;4.00;;;1.60;99.90;;;;;;5068425;28;20044;-72
2023/01/18 10:17:07;;;;;;;9.30;4.43;;;1.70;99.90;;;;;;5066115;28;20054;-72
2023/01/18 10:19:33;;;;;;;12.85;5.18;;;1.90;99.90;;;;;;5070374;28;20044;-73
2023/01/18 10:22:22;;;;;;;8.33;3.80;;;2.00;99.90;;;;;;5057689;28;20055;-72
2023/01/18 10:25:02;;;;;;;7.85;3.30;;;2.10;99.90;;;;;;5055831;28;20408;-72
2023/01/18 10:28:03;;;;;;;5.40;3.17;;;2.20;99.90;;;;;;5063846;28;20631;-72
2023/01/18 10:30:31;;;;;;;7.93;3.50;;;2.30;99.90;;;;;;5065692;28;20049;-72
2023/01/18 10:33:00;;;;;;;9.48;4.25;;;2.40;99.90;;;;;;5056737;28;20401;-72
2023/01/18 10:35:42;;;;;;;7.85;3.40;;;2.50;99.90;;;;;;5022652;28;20688;-73
2023/01/18 10:38:14;;;;;;;14.10;3.80;;;2.50;99.90;;;;;;5067636;28;20078;-73
2023/01/18 10:40:42;;;;;;;8.55;3.60;;;2.60;99.90;;;;;;5061658;28;20413;-73
2023/01/18 10:43:14;;;;;;;8.98;3.92;;;2.70;99.90;;;;;;5043589;28;20082;-73
2023/01/18 10:45:40;;;;;;;6.20;3.60;;;2.70;99.90;;;;;;5047672;28;20185;-73
2023/01/18 10:48:27;;;;;;;7.45;3.42;;;2.80;99.90;;;;;;5065410;28;20492;-73
2023/01/18 10:51:04;;;;;;;8.55;3.60;;;2.80;99.90;;;;;;5061804;28;20615;-72
2023/01/18 10:53:35;;;;;;;7.55;3.22;;;2.90;99.90;;;;;;5065357;28;20048;-73
2023/01/18 10:56:04;;;;;;;9.02;3.58;;;2.90;99.90;;;;;;5065651;28;20072;-73
2023/01/18 10:58:51;;;;;;;6.07;3.13;;;3.00;99.90;;;;;;5065578;28;20101;-73
2023/01/18 11:01:23;;;;;;;5.43;2.75;;;3.00;99.90;;;;;;5040207;28;20037;-73
2023/01/18 11:03:54;;;;;;;8.23;2.72;;;3.10;99.90;;;;;;5051585;28;20110;-73
2023/01/18 11:06:21;;;;;;;8.02;3.10;;;3.10;99.90;;;;;;5051222;28;20045;-73
2023/01/18 11:08:48;;;;;;;8.27;2.72;;;3.20;99.90;;;;;;5064778;28;20047;-73
2023/01/18 11:11:16;;;;;;;5.93;2.85;;;3.20;99.90;;;;;;5062107;28;20658;-73
2023/01/18 11:13:48;;;;;;;5.75;2.88;;;3.20;99.90;;;;;;5044262;28;20040;-73
2023/01/18 11:16:16;;;;;;;7.38;3.13;;;3.10;99.90;;;;;;5066700;28;20127;-73
2023/01/18 11:19:03;;;;;;;8.77;3.25;;;3.10;99.90;;;;;;5061131;28;20115;-73
2023/01/18 11:21:41;;;;;;;7.47;2.97;;;3.10;99.90;;;;;;5069241;28;20133;-73
2023/01/18 11:24:13;;;;;;;5.22;2.80;;;3.20;99.90;;;;;;5061441;28;20048;-73
2023/01/18 11:26:55;;;;;;;7.60;2.70;;;3.40;99.90;;;;;;5047747;28;20110;-73
2023/01/18 11:29:25;;;;;;;8.32;2.95;;;3.70;99.90;;;;;;5071490;28;20036;-73
2023/01/18 11:31:53;;;;;;;9.90;3.25;;;3.90;99.90;;;;;;5057538;28;20052;-72
2023/01/18 11:34:28;;;;;;;6.82;2.83;;;4.10;99.90;;;;;;5066568;28;20496;-73
2023/01/18 11:36:56;;;;;;;5.38;2.55;;;4.20;99.90;;;;;;5063783;28;20037;-73
2023/01/18 11:39:26;;;;;;;8.75;3.03;;;4.10;99.90;;;;;;5061005;28;20048;-73
2023/01/18 11:42:21;;;;;;;5.28;2.70;;;4.10;99.90;;;;;;5046089;28;20040;-73
2023/01/18 11:45:25;;;;;;;5.22;2.10;;;4.10;99.90;;;;;;5043766;28;20052;-73
2023/01/18 11:48:13;;;;;;;9.85;2.85;;;4.10;99.90;;;;;;5069075;28;20045;-73
2023/01/18 11:50:45;;;;;;;4.88;2.00;;;4.10;99.90;;;;;;5064403;28;20044;-73
2023/01/18 11:53:22;;;;;;;3.65;1.80;;;4.10;99.90;;;;;;5077253;28;20076;-73
2023/01/18 11:56:06;;;;;;;6.03;1.92;;;4.10;99.90;;;;;;5077884;28;20268;-73
2023/01/18 11:58:34;;;;;;;7.90;2.65;;;4.20;99.90;;;;;;5074650;28;20047;-73
2023/01/18 12:01:20;;;;;;;5.60;2.25;;;4.20;99.90;;;;;;5077570;28;20045;-73
2023/01/18 12:03:46;;;;;;;;;;;4.20;99.90;;;;;;5076040;28;20048;-73
2023/01/18 12:06:26;;;;;;;6.20;1.83;;;4.10;99.90;;;;;;5081263;28;20003;-73
2023/01/18 12:09:32;;;;;;;6.53;1.92;;;4.10;99.90;;;;;;5071123;28;20045;-73
2023/01/18 12:12:36;;;;;;;6.10;1.92;;;4.00;99.90;;;;;;5073247;28;20045;-73
2023/01/18 12:15:37;;;;;;;7.50;1.70;;;4.00;99.90;;;;;;5068332;28;20529;-73
2023/01/18 12:18:21;;;;;;;3.88;1.13;;;3.90;99.90;;;;;;5069936;28;20049;-73
2023/01/18 12:20:59;;;;;;;5.45;1.52;;;4.00;99.90;;;;;;5080030;28;20036;-73
2023/01/18 12:23:53;;;;;;;4.57;1.20;;;4.10;99.90;;;;;;5064817;28;20048;-73
2023/01/18 12:26:40;;;;;;;3.53;0.98;;;4.10;99.90;;;;;;5070427;28;20048;-73
2023/01/18 12:29:20;;;;;;;5.22;1.27;;;4.00;99.90;;;;;;5068658;28;20044;-73
2023/01/18 12:31:56;;;;;;;6.50;0.80;;;4.00;99.90;;;;;;5075994;28;20500;-73
2023/01/18 12:34:47;;;;;;;5.55;1.30;;;4.00;99.90;;;;;;5062092;28;20443;-73
2023/01/18 12:37:30;;;;;;;4.88;1.38;;;3.90;99.90;;;;;;5069648;28;20041;-73
2023/01/18 12:40:31;;;;;;;5.03;1.50;;;3.90;99.90;;;;;;5045209;28;20041;-73
2023/01/18 12:42:56;;;;;;;5.57;1.20;;;3.90;99.90;;;;;;5078821;28;20040;-73
2023/01/18 12:45:39;;;;;;;6.93;1.43;;;3.80;99.90;;;;;;5056670;28;20508;-73
2023/01/18 12:48:08;;;;;;;3.47;1.13;;;3.80;99.90;;;;;;5068780;28;20339;-73
2023/01/18 12:50:36;;;;;;;3.35;1.30;;;3.80;99.90;;;;;;5066418;28;20045;-72
2023/01/18 12:53:13;;;;;;;4.95;1.20;;;3.70;99.90;;;;;;5066596;28;20175;-73
2023/01/18 12:55:43;;;;;;;6.20;1.00;;;3.70;99.90;;;;;;5066471;28;20404;-73
2023/01/18 12:58:17;;;;;;;3.08;1.30;;;3.70;99.90;;;;;;5063282;28;20075;-73
2023/01/18 13:00:47;;;;;;;6.20;1.25;;;3.60;99.90;;;;;;5044167;28;20049;-73
2023/01/18 13:03:16;;;;;;;6.25;1.90;;;3.60;99.90;;;;;;5069322;28;20060;-73
2023/01/18 13:05:58;;;;;;;6.85;1.90;;;3.60;99.90;;;;;;5056551;28;20059;-72
2023/01/18 13:08:39;;;;;;;8.88;2.35;;;3.60;99.90;;;;;;5049102;28;20040;-73
2023/01/18 13:11:35;;;;;;;5.10;1.83;;;3.50;99.90;;;;;;5065463;28;20583;-72
2023/01/18 13:14:25;;;;;;;4.85;2.35;;;3.50;99.90;;;;;;5067988;28;20037;-72
2023/01/18 13:17:02;;;;;;;6.63;1.67;;;3.50;99.90;;;;;;5052282;28;20044;-72
2023/01/18 13:19:58;;;;;;;7.50;1.98;;;3.50;99.90;;;;;;5067104;28;20070;-72
2023/01/18 13:22:33;;;;;;;;;;;3.40;99.90;;;;;;5060701;28;20044;-72
2023/01/18 13:25:14;;;;;;;5.80;1.83;;;3.40;99.90;;;;;;5068589;28;20424;-72
2023/01/18 13:27:56;;;;;;;6.72;1.30;;;3.40;99.90;;;;;;5063674;28;20040;-73
2023/01/18 13:30:23;;;;;;;5.72;1.48;;;3.40;99.90;;;;;;5072020;28;20036;-72
2023/01/18 13:32:52;;;;;;;5.30;1.00;;;3.40;99.90;;;;;;5062648;28;20074;-73
2023/01/18 13:35:22;;;;;;;6.30;1.45;;;3.40;99.90;;;;;;5075798;28;20093;-72
2023/01/18 13:37:49;;;;;;;3.78;0.60;;;3.50;99.90;;;;;;5067525;28;20043;-72
2023/01/18 13:40:35;;;;;;;4.47;0.80;;;3.50;99.90;;;;;;5044611;28;20102;-73